Terminal Aerodrome Forecast
Issued by NWS

Current Version | Previous Version | Text Only | Print | Product List | Glossary Off
Versions: 1 2 3 4 5 6 7 8 9 10 11 12 13 14 15 16 17

000
FTUS41 KPBZ 282332
TAFMGW
TAF
KMGW 282332Z 2900/2924 VRB03KT P6SM VCTS SCT050CB BKN100
     FM290400 VRB03KT P6SM BKN080
     FM290900 VRB03KT 5SM BR BKN100
     FM291300 04004KT P6SM SCT040=

USA.gov is the U.S. government's official web portal to all federal, state and local government web resources and services.